Time;durP1;ratioP1;P1;durP2;ratioP2;P2;SDS_P1;SDS_P2;PMS_P1;PMS_P2;Temp;Humidity;BMP_temperature;BMP_pressure;BME280_temperature;BME280_humidity;BME280_pressure;Samples;Min_cycle;Max_cycle;Signal;HPM_P1;HPM_P2
2021/01/10 00:00:13;;;;;;;68.82;33.22;;;2.90;99.90;;;;;;4982180;28;20090;-80
2021/01/10 00:02:40;;;;;;;63.50;32.75;;;2.90;99.90;;;;;;4981544;28;20526;-79
2021/01/10 00:05:08;;;;;;;68.63;33.22;;;2.90;99.90;;;;;;4982680;28;20130;-78
2021/01/10 00:07:35;;;;;;;68.70;33.95;;;2.90;99.90;;;;;;4981780;28;20058;-80
2021/01/10 00:10:05;;;;;;;71.32;36.03;;;2.90;99.90;;;;;;4986164;28;20081;-79
2021/01/10 00:12:31;;;;;;;70.43;34.42;;;2.90;99.90;;;;;;4998403;28;20110;-79
2021/01/10 00:14:58;;;;;;;74.07;35.03;;;2.90;99.90;;;;;;4986962;28;20177;-79
2021/01/10 00:17:24;;;;;;;77.80;38.25;;;2.90;99.90;;;;;;4978895;28;20094;-79
2021/01/10 00:19:50;;;;;;;78.88;35.97;;;2.90;99.90;;;;;;4978535;28;20089;-79
2021/01/10 00:22:19;;;;;;;80.35;35.63;;;2.90;99.90;;;;;;4978816;28;20134;-80
2021/01/10 00:24:46;;;;;;;77.43;35.88;;;2.80;99.90;;;;;;4979802;28;20150;-78
2021/01/10 00:27:16;;;;;;;79.65;36.65;;;2.90;99.90;;;;;;4979775;28;20186;-80
2021/01/10 00:29:44;;;;;;;73.72;35.67;;;2.90;99.90;;;;;;4979479;28;20082;-80
2021/01/10 00:32:11;;;;;;;71.25;34.10;;;2.90;99.90;;;;;;4979957;28;20082;-78
2021/01/10 00:34:38;;;;;;;73.25;35.28;;;2.90;99.90;;;;;;4978534;28;20461;-80
2021/01/10 00:37:13;;;;;;;71.80;32.38;;;2.90;99.90;;;;;;4979044;28;20133;-79
2021/01/10 00:39:40;;;;;;;56.80;30.67;;;2.90;99.90;;;;;;4960185;29;20051;-79
2021/01/10 00:42:08;;;;;;;65.78;31.30;;;2.90;99.90;;;;;;4977304;28;20137;-80
2021/01/10 00:44:35;;;;;;;65.57;32.75;;;2.80;99.90;;;;;;4982862;28;20074;-80
2021/01/10 00:47:03;;;;;;;67.75;32.80;;;2.80;99.90;;;;;;4980982;28;20050;-80
2021/01/10 00:49:29;;;;;;;63.50;31.90;;;2.70;99.90;;;;;;4977549;28;20086;-80
2021/01/10 00:51:55;;;;;;;63.78;32.08;;;2.70;99.90;;;;;;4975755;28;20105;-79
2021/01/10 00:54:22;;;;;;;64.78;33.22;;;2.60;99.90;;;;;;4976285;28;20129;-79
2021/01/10 00:56:48;;;;;;;70.80;33.38;;;2.60;99.90;;;;;;4976133;28;20118;-80
2021/01/10 00:59:15;;;;;;;68.32;32.33;;;2.60;99.90;;;;;;4977250;28;20484;-78
2021/01/10 01:01:42;;;;;;;64.45;32.47;;;2.60;99.90;;;;;;4975886;28;20111;-79
2021/01/10 01:04:09;;;;;;;72.68;34.30;;;2.60;99.90;;;;;;4978070;28;20143;-80
2021/01/10 01:06:36;;;;;;;69.18;34.65;;;2.50;99.90;;;;;;4976702;28;20117;-77
2021/01/10 01:09:04;;;;;;;66.75;34.95;;;2.40;99.90;;;;;;4975157;28;20068;-78
2021/01/10 01:11:31;;;;;;;77.30;35.28;;;2.40;99.90;;;;;;4975331;28;20133;-77
2021/01/10 01:13:58;;;;;;;73.20;33.85;;;2.40;99.90;;;;;;4976603;28;20117;-79
2021/01/10 01:16:24;;;;;;;64.63;32.72;;;2.40;99.90;;;;;;4976564;28;20190;-80
2021/01/10 01:18:51;;;;;;;63.97;33.03;;;2.40;99.90;;;;;;4980494;28;20102;-80
2021/01/10 01:21:19;;;;;;;69.80;34.58;;;2.40;99.90;;;;;;4979714;28;20611;-79
2021/01/10 01:23:45;;;;;;;71.00;34.03;;;2.40;99.90;;;;;;4990599;28;20051;-78
2021/01/10 01:26:16;;;;;;;78.85;35.55;;;2.40;99.90;;;;;;4987177;28;20050;-80
2021/01/10 01:28:43;;;;;;;77.03;35.38;;;2.40;99.90;;;;;;4981126;28;20089;-80
2021/01/10 01:31:14;;;;;;;77.57;37.33;;;2.30;99.90;;;;;;4980535;28;20061;-80
2021/01/10 01:33:41;;;;;;;72.40;34.00;;;2.40;99.90;;;;;;4981483;28;20086;-78
2021/01/10 01:36:12;;;;;;;69.50;33.10;;;2.40;99.90;;;;;;4978405;28;20078;-78
2021/01/10 01:38:39;;;;;;;73.28;34.63;;;2.50;99.90;;;;;;4978701;28;20143;-79
2021/01/10 01:41:06;;;;;;;69.75;33.90;;;2.50;99.90;;;;;;4985213;28;20085;-77
2021/01/10 01:43:34;;;;;;;70.50;32.20;;;2.50;99.90;;;;;;4982889;28;20583;-80
2021/01/10 01:46:01;;;;;;;67.75;32.55;;;2.50;99.90;;;;;;4980886;28;20109;-80
2021/01/10 01:48:28;;;;;;;73.43;33.80;;;2.50;99.90;;;;;;4981520;28;20058;-81
2021/01/10 01:50:56;;;;;;;75.55;32.75;;;2.50;99.90;;;;;;4980723;28;20082;-81
2021/01/10 01:53:24;;;;;;;63.78;31.63;;;2.50;99.90;;;;;;4980680;28;20141;-80
2021/01/10 01:55:52;;;;;;;66.53;32.40;;;2.50;99.90;;;;;;4980231;28;20055;-80
2021/01/10 01:58:19;;;;;;;69.70;31.88;;;2.60;99.90;;;;;;4979983;28;20089;-80
2021/01/10 02:00:45;;;;;;;70.82;31.10;;;2.60;99.90;;;;;;4979827;28;20071;-80
2021/01/10 02:03:15;;;;;;;68.82;31.83;;;2.60;99.90;;;;;;4978324;28;20074;-80
2021/01/10 02:05:42;;;;;;;72.28;32.10;;;2.60;99.90;;;;;;4979436;28;20081;-80
2021/01/10 02:08:10;;;;;;;76.25;32.88;;;2.70;99.90;;;;;;4979837;28;20451;-80
2021/01/10 02:10:41;;;;;;;75.55;33.33;;;2.70;99.90;;;;;;4980150;28;20103;-80
2021/01/10 02:13:14;;;;;;;76.30;32.05;;;2.70;99.90;;;;;;4978230;28;20082;-80
2021/01/10 02:15:42;;;;;;;78.50;34.25;;;2.80;99.90;;;;;;4979944;28;20046;-81
2021/01/10 02:18:10;;;;;;;69.07;32.08;;;2.70;99.90;;;;;;4979872;28;20553;-79
2021/01/10 02:20:38;;;;;;;68.90;32.10;;;2.80;99.90;;;;;;4978082;28;20047;-80
2021/01/10 02:23:09;;;;;;;68.40;31.67;;;2.80;99.90;;;;;;4977877;28;20134;-80
2021/01/10 02:25:38;;;;;;;70.05;31.52;;;2.80;99.90;;;;;;4977654;28;20079;-81
2021/01/10 02:28:06;;;;;;;72.75;32.63;;;2.80;99.90;;;;;;4977057;28;20086;-79
2021/01/10 02:30:33;;;;;;;73.43;32.25;;;3.00;99.90;;;;;;4976010;28;20142;-79
2021/01/10 02:33:04;;;;;;;68.43;31.40;;;2.90;99.90;;;;;;4976037;28;20448;-79
2021/01/10 02:35:32;;;;;;;64.18;30.77;;;2.90;99.90;;;;;;4976015;28;20134;-79
2021/01/10 02:38:24;;;;;;;63.05;30.63;;;2.90;99.90;;;;;;4975934;28;20054;-78
2021/01/10 02:41:01;;;;;;;67.97;31.98;;;2.80;99.90;;;;;;4975503;28;20130;-79
2021/01/10 02:43:31;;;;;;;71.72;31.52;;;2.80;99.90;;;;;;4976995;28;20047;-79
2021/01/10 02:46:03;;;;;;;70.55;30.88;;;2.90;99.90;;;;;;4973459;28;20141;-78
2021/01/10 02:48:30;;;;;;;70.05;31.88;;;2.80;99.90;;;;;;4973632;28;20486;-78
2021/01/10 02:50:56;;;;;;;68.40;33.90;;;2.80;99.90;;;;;;4972862;28;20137;-78
2021/01/10 02:53:22;;;;;;;67.65;31.38;;;2.80;99.90;;;;;;4976337;28;20555;-79
2021/01/10 02:55:49;;;;;;;62.40;30.58;;;2.80;99.90;;;;;;4977552;28;20054;-79
2021/01/10 02:58:21;;;;;;;65.03;31.30;;;2.80;99.90;;;;;;4977383;28;20145;-80
2021/01/10 03:00:48;;;;;;;65.93;30.92;;;2.80;99.90;;;;;;4978580;28;20078;-78
2021/01/10 03:03:15;;;;;;;63.20;31.15;;;2.80;99.90;;;;;;4981469;28;20047;-80
2021/01/10 03:05:42;;;;;;;66.35;31.33;;;2.80;99.90;;;;;;4982444;28;20129;-79
2021/01/10 03:08:09;;;;;;;64.97;31.67;;;2.80;99.90;;;;;;4982667;28;20062;-79
2021/01/10 03:10:37;;;;;;;71.25;32.25;;;2.80;99.90;;;;;;4983059;28;20189;-79
2021/01/10 03:13:04;;;;;;;70.90;33.00;;;2.70;99.90;;;;;;4979939;28;20101;-79
2021/01/10 03:15:32;;;;;;;65.15;31.95;;;2.70;99.90;;;;;;4979861;28;20133;-80
2021/01/10 03:18:15;;;;;;;69.22;31.63;;;2.70;99.90;;;;;;4980570;28;20051;-79
2021/01/10 03:20:41;;;;;;;63.92;31.42;;;2.70;99.90;;;;;;4982855;28;20083;-80
2021/01/10 03:23:08;;;;;;;63.33;30.52;;;2.70;99.90;;;;;;4981780;28;20138;-80
2021/01/10 03:25:34;;;;;;;62.72;30.88;;;2.70;99.90;;;;;;4982647;28;20097;-80
2021/01/10 03:28:01;;;;;;;67.97;32.22;;;2.70;99.90;;;;;;4981458;28;20075;-80
2021/01/10 03:30:27;;;;;;;67.32;30.83;;;2.70;99.90;;;;;;4980609;28;20174;-79
2021/01/10 03:32:54;;;;;;;65.00;31.33;;;2.70;99.90;;;;;;4982269;28;20090;-79
2021/01/10 03:35:21;;;;;;;58.00;30.33;;;2.80;99.90;;;;;;4982893;28;20134;-80
2021/01/10 03:37:48;;;;;;;61.28;29.77;;;2.70;99.90;;;;;;4982755;28;20054;-80
2021/01/10 03:40:14;;;;;;;62.10;30.10;;;2.70;99.90;;;;;;4982362;28;20539;-80
2021/01/10 03:42:41;;;;;;;60.28;30.50;;;2.70;99.90;;;;;;4979874;28;20058;-80
2021/01/10 03:45:10;;;;;;;60.15;28.88;;;2.70;99.90;;;;;;4978925;28;20059;-79
2021/01/10 03:47:36;;;;;;;55.30;29.00;;;2.70;99.90;;;;;;4981047;28;20149;-80
2021/01/10 03:50:05;;;;;;;62.40;29.38;;;2.70;99.90;;;;;;4979512;28;20149;-79
2021/01/10 03:52:31;;;;;;;60.67;30.15;;;2.70;99.90;;;;;;4977515;28;20082;-80
2021/01/10 03:54:58;;;;;;;59.00;30.38;;;2.70;99.90;;;;;;4978724;28;20079;-80
2021/01/10 03:57:24;;;;;;;64.68;30.92;;;2.70;99.90;;;;;;4978354;28;20137;-79
2021/01/10 03:59:50;;;;;;;63.25;30.15;;;2.70;99.90;;;;;;4978296;28;20105;-79
2021/01/10 04:02:17;;;;;;;57.97;29.23;;;2.60;99.90;;;;;;4980274;28;20130;-79
2021/01/10 04:04:43;;;;;;;60.17;30.70;;;2.60;99.90;;;;;;4982963;28;20536;-79
2021/01/10 04:07:11;;;;;;;64.47;31.00;;;2.60;99.90;;;;;;4979595;28;20129;-79
2021/01/10 04:09:37;;;;;;;65.18;31.83;;;2.50;99.90;;;;;;4977910;28;20043;-77
2021/01/10 04:12:04;;;;;;;68.68;32.42;;;2.50;99.90;;;;;;4977670;28;20554;-79
2021/01/10 04:14:30;;;;;;;65.47;31.23;;;2.50;99.90;;;;;;4977695;28;20097;-79
2021/01/10 04:16:57;;;;;;;66.47;33.05;;;2.40;99.90;;;;;;4977661;28;20082;-79
2021/01/10 04:19:23;;;;;;;71.95;32.50;;;2.40;99.90;;;;;;4977791;28;20082;-80
2021/01/10 04:21:49;;;;;;;68.57;32.85;;;2.40;99.90;;;;;;4979432;28;20480;-79
2021/01/10 04:24:17;;;;;;;72.20;32.08;;;2.50;99.90;;;;;;4978826;28;20082;-79
2021/01/10 04:26:47;;;;;;;71.85;35.20;;;2.40;99.90;;;;;;4978536;28;20134;-80
2021/01/10 04:29:15;;;;;;;66.65;32.42;;;2.50;99.90;;;;;;4979027;28;20061;-79
2021/01/10 04:31:41;;;;;;;73.18;34.10;;;2.50;99.90;;;;;;4977992;28;20062;-80
2021/01/10 04:34:08;;;;;;;76.78;33.53;;;2.50;99.90;;;;;;4977295;28;20115;-79
2021/01/10 04:36:34;;;;;;;78.80;35.10;;;2.50;99.90;;;;;;4976682;28;20528;-79
2021/01/10 04:39:01;;;;;;;78.22;34.63;;;2.50;99.90;;;;;;4978655;28;20138;-79
2021/01/10 04:41:29;;;;;;;71.70;34.50;;;2.50;99.90;;;;;;4981180;28;20135;-80
2021/01/10 04:43:55;;;;;;;70.78;32.97;;;2.50;99.90;;;;;;4978867;28;20667;-80
2021/01/10 04:46:22;;;;;;;70.93;34.15;;;2.50;99.90;;;;;;4980210;28;20503;-80
2021/01/10 04:48:49;;;;;;;76.75;34.67;;;2.50;99.90;;;;;;4980091;28;20082;-80
2021/01/10 04:51:16;;;;;;;74.88;33.85;;;2.50;99.90;;;;;;5014897;23;20170;-83
2021/01/10 04:53:45;;;;;;;66.97;33.40;;;2.60;99.90;;;;;;4987418;28;20171;-83
2021/01/10 04:56:13;;;;;;;76.38;34.58;;;2.60;99.90;;;;;;4997723;28;20050;-83
2021/01/10 04:58:42;;;;;;;73.93;33.10;;;2.50;99.90;;;;;;4998479;28;20109;-83
2021/01/10 05:01:16;;;;;;;68.80;32.08;;;2.40;99.90;;;;;;4997100;28;20102;-81
2021/01/10 05:03:43;;;;;;;67.63;32.53;;;2.50;99.90;;;;;;4997923;28;20124;-81
2021/01/10 05:06:10;;;;;;;72.50;34.15;;;2.40;99.90;;;;;;4997859;28;20054;-81
2021/01/10 05:08:37;;;;;;;77.63;33.80;;;2.40;99.90;;;;;;4997615;28;20134;-81
2021/01/10 05:11:03;;;;;;;68.47;32.72;;;2.40;99.90;;;;;;4999389;28;20087;-81
2021/01/10 05:13:30;;;;;;;74.30;34.30;;;2.40;99.90;;;;;;4997195;28;20372;-80
2021/01/10 05:15:58;;;;;;;65.10;33.60;;;2.40;99.90;;;;;;4994735;28;20134;-79
2021/01/10 05:18:24;;;;;;;73.03;35.38;;;2.50;99.90;;;;;;4987284;28;20522;-80
2021/01/10 05:20:54;;;;;;;74.13;35.47;;;2.40;99.90;;;;;;4971475;28;20055;-81
2021/01/10 05:23:35;;;;;;;78.10;35.90;;;2.40;99.90;;;;;;4975904;28;20051;-80
2021/01/10 05:26:13;;;;;;;73.82;35.78;;;2.40;99.90;;;;;;4982047;28;20047;-82
2021/01/10 05:28:57;;;;;;;69.22;34.13;;;2.30;99.90;;;;;;4979722;28;20118;-81
2021/01/10 05:31:48;;;;;;;62.42;32.67;;;2.30;99.90;;;;;;4981430;28;20074;-81
2021/01/10 05:34:32;;;;;;;72.55;35.38;;;2.20;99.90;;;;;;4979815;28;20057;-82
2021/01/10 05:37:16;;;;;;;71.82;34.75;;;2.10;99.90;;;;;;4972913;28;20057;-82
2021/01/10 05:39:46;;;;;;;77.43;37.60;;;2.00;99.90;;;;;;4975811;28;20055;-79
2021/01/10 05:42:14;;;;;;;84.00;39.42;;;2.00;99.90;;;;;;4981462;28;20134;-81
2021/01/10 05:44:52;;;;;;;76.72;37.05;;;2.00;99.90;;;;;;4974954;28;20053;-81
2021/01/10 05:47:20;;;;;;;66.07;34.33;;;1.90;99.90;;;;;;4972894;28;20511;-81
2021/01/10 05:49:47;;;;;;;74.53;34.35;;;1.90;99.90;;;;;;4993971;28;20333;-81
2021/01/10 05:52:15;;;;;;;70.03;35.10;;;1.80;99.90;;;;;;4992895;28;20137;-80
2021/01/10 05:54:42;;;;;;;79.63;35.88;;;1.80;99.90;;;;;;4993460;28;20085;-81
2021/01/10 05:57:09;;;;;;;78.45;38.22;;;1.80;99.90;;;;;;4982688;28;20130;-82
2021/01/10 05:59:37;;;;;;;82.68;38.15;;;1.70;99.90;;;;;;4973775;28;20121;-81
2021/01/10 06:02:05;;;;;;;77.93;38.85;;;1.60;99.90;;;;;;4971928;28;20089;-82
2021/01/10 06:04:33;;;;;;;75.45;38.05;;;1.60;99.90;;;;;;4972921;28;20507;-81
2021/01/10 06:07:00;;;;;;;76.70;38.55;;;1.60;99.90;;;;;;4973916;28;20138;-80
2021/01/10 06:09:28;;;;;;;80.50;39.55;;;1.60;99.90;;;;;;4975482;28;20102;-81
2021/01/10 06:11:54;;;;;;;76.50;38.22;;;1.60;99.90;;;;;;4976423;28;20079;-81
2021/01/10 06:14:23;;;;;;;79.65;38.47;;;1.60;99.90;;;;;;4976409;28;20138;-81
2021/01/10 06:16:55;;;;;;;78.32;38.90;;;1.60;99.90;;;;;;4980134;28;20101;-81
2021/01/10 06:19:27;;;;;;;85.45;39.20;;;1.60;99.90;;;;;;4992593;28;20066;-81
2021/01/10 06:21:59;;;;;;;84.28;37.92;;;1.60;99.90;;;;;;4996322;28;20035;-81
2021/01/10 06:24:27;;;;;;;82.22;39.53;;;1.70;99.90;;;;;;4994578;28;20115;-82
2021/01/10 06:27:05;;;;;;;86.50;40.10;;;1.70;99.90;;;;;;4994723;28;20054;-82
2021/01/10 06:29:39;;;;;;;87.43;40.92;;;1.80;99.90;;;;;;4997928;28;20062;-82
2021/01/10 06:32:10;;;;;;;84.70;41.97;;;1.80;99.90;;;;;;4995654;28;20047;-81
2021/01/10 06:34:41;;;;;;;82.03;39.80;;;1.80;99.90;;;;;;4987076;28;20507;-82
2021/01/10 06:37:10;;;;;;;83.25;40.80;;;1.80;99.90;;;;;;4982496;28;20134;-82
2021/01/10 06:39:44;;;;;;;81.50;39.42;;;1.80;99.90;;;;;;4982627;28;20078;-81
2021/01/10 06:42:12;;;;;;;77.55;39.17;;;1.80;99.90;;;;;;4982357;28;20132;-83
2021/01/10 06:44:45;;;;;;;77.05;37.85;;;1.80;99.90;;;;;;4979882;28;20129;-82
2021/01/10 06:47:21;;;;;;;70.80;37.95;;;1.70;99.90;;;;;;4979435;28;20160;-81
2021/01/10 06:49:48;;;;;;;80.38;38.90;;;1.60;99.90;;;;;;4979029;28;20131;-83
2021/01/10 06:52:16;;;;;;;77.53;38.30;;;1.60;99.90;;;;;;4978675;28;20578;-83
2021/01/10 06:54:44;;;;;;;83.88;38.90;;;1.60;99.90;;;;;;4980441;28;20134;-83
2021/01/10 06:57:11;;;;;;;82.38;40.00;;;1.60;99.90;;;;;;4988309;28;20092;-82
2021/01/10 07:00:08;;;;;;;79.32;39.10;;;1.60;99.90;;;;;;4995092;28;20047;-80
2021/01/10 07:03:06;;;;;;;79.13;40.22;;;1.60;99.90;;;;;;4993418;28;20055;-80
2021/01/10 07:06:08;;;;;;;83.88;41.22;;;1.40;99.90;;;;;;4987146;28;20062;-81
2021/01/10 07:08:37;;;;;;;76.50;37.55;;;1.50;99.90;;;;;;4988405;28;20054;-80
2021/01/10 07:11:34;;;;;;;78.68;38.65;;;1.50;99.90;;;;;;4992887;28;20085;-80
2021/01/10 07:14:30;;;;;;;75.40;38.17;;;1.50;99.90;;;;;;4939524;29;20052;-80
2021/01/10 07:17:19;;;;;;;78.65;39.35;;;1.60;99.90;;;;;;4997220;28;20130;-81
2021/01/10 07:19:48;;;;;;;74.40;38.35;;;1.60;99.90;;;;;;4998337;28;20047;-80
2021/01/10 07:22:28;;;;;;;79.57;40.50;;;1.60;99.90;;;;;;4997943;28;20042;-81
2021/01/10 07:24:56;;;;;;;79.20;40.85;;;1.70;99.90;;;;;;4987568;28;20296;-82
2021/01/10 07:27:30;;;;;;;74.88;39.67;;;1.70;99.90;;;;;;4987222;28;20050;-81
2021/01/10 07:29:57;;;;;;;78.53;38.17;;;1.80;99.90;;;;;;4986487;28;20047;-81
2021/01/10 07:32:35;;;;;;;78.38;37.97;;;1.80;99.90;;;;;;4985793;28;20573;-81
2021/01/10 07:35:04;;;;;;;79.72;38.60;;;1.80;99.90;;;;;;4986013;28;20051;-81
2021/01/10 07:37:32;;;;;;;67.13;37.50;;;1.90;99.90;;;;;;4986875;28;20091;-80
2021/01/10 07:40:01;;;;;;;79.30;39.05;;;1.90;99.90;;;;;;4981978;28;20074;-81
2021/01/10 07:42:29;;;;;;;74.38;38.40;;;1.90;99.90;;;;;;4985078;28;20055;-81
2021/01/10 07:44:57;;;;;;;76.65;38.47;;;2.00;99.90;;;;;;4983124;28;20109;-80
2021/01/10 07:47:41;;;;;;;71.93;37.17;;;1.90;99.90;;;;;;4978950;28;20097;-80
2021/01/10 07:50:18;;;;;;;70.70;36.72;;;1.90;99.90;;;;;;4979177;28;20168;-80
2021/01/10 07:52:53;;;;;;;69.93;38.17;;;2.00;99.90;;;;;;4978473;28;20086;-81
2021/01/10 07:55:28;;;;;;;75.07;39.60;;;2.00;99.90;;;;;;4981934;28;20085;-79
2021/01/10 07:58:16;;;;;;;77.53;37.58;;;2.00;99.90;;;;;;4983240;28;20078;-80
2021/01/10 08:00:53;;;;;;;81.57;39.20;;;1.90;99.90;;;;;;4983754;28;20065;-80
2021/01/10 08:03:23;;;;;;;75.22;37.20;;;2.00;99.90;;;;;;4981307;28;20059;-80
2021/01/10 08:05:57;;;;;;;77.15;38.28;;;2.00;99.90;;;;;;4980502;28;20055;-79
2021/01/10 08:08:41;;;;;;;72.70;36.90;;;2.10;99.90;;;;;;4985075;28;20082;-79
2021/01/10 08:11:09;;;;;;;71.63;37.28;;;2.00;99.90;;;;;;4988185;28;20054;-80
2021/01/10 08:13:37;;;;;;;72.72;35.92;;;2.00;99.90;;;;;;4980934;28;20051;-82
2021/01/10 08:16:05;;;;;;;72.32;37.03;;;2.10;99.90;;;;;;4985408;28;20054;-82
2021/01/10 08:18:36;;;;;;;75.15;37.83;;;2.00;99.90;;;;;;4997428;28;20031;-82
2021/01/10 08:21:07;;;;;;;84.38;37.53;;;2.00;99.90;;;;;;4997676;28;20058;-80
2021/01/10 08:23:34;;;;;;;81.18;35.80;;;2.00;99.90;;;;;;4997042;28;20046;-84
2021/01/10 08:26:09;;;;;;;76.78;37.63;;;2.10;99.90;;;;;;4991942;28;20050;-84
2021/01/10 08:28:40;;;;;;;73.18;38.03;;;2.10;99.90;;;;;;4998193;28;20062;-81
2021/01/10 08:31:08;;;;;;;75.78;40.10;;;2.20;99.90;;;;;;4995431;28;20055;-79
2021/01/10 08:33:35;;;;;;;76.82;38.17;;;2.30;99.90;;;;;;4989181;28;20090;-80
2021/01/10 08:36:16;;;;;;;73.18;37.28;;;2.30;99.90;;;;;;4983263;28;20527;-81
2021/01/10 08:38:50;;;;;;;68.70;35.72;;;2.30;99.90;;;;;;4979091;28;20188;-81
2021/01/10 08:41:29;;;;;;;65.72;34.25;;;2.40;99.90;;;;;;4979260;28;20154;-81
2021/01/10 08:43:57;;;;;;;72.55;34.08;;;2.40;99.90;;;;;;4979121;28;20138;-81
2021/01/10 08:46:25;;;;;;;64.60;34.13;;;2.40;99.90;;;;;;4980632;28;20105;-82
2021/01/10 08:48:51;;;;;;;78.55;41.33;;;2.40;99.90;;;;;;4979269;28;20086;-81
2021/01/10 08:51:32;;;;;;;68.65;37.45;;;2.50;99.90;;;;;;4977319;28;20061;-82
2021/01/10 08:53:59;;;;;;;64.70;34.67;;;2.50;99.90;;;;;;4978408;28;20054;-82
2021/01/10 08:56:26;;;;;;;65.15;34.42;;;2.50;99.90;;;;;;4984352;28;20489;-79
2021/01/10 08:58:56;;;;;;;65.22;35.20;;;2.70;99.90;;;;;;4980972;28;20054;-80
2021/01/10 09:01:25;;;;;;;73.10;35.75;;;2.50;99.90;;;;;;4979162;28;20138;-80
2021/01/10 09:03:59;;;;;;;81.78;42.03;;;2.50;99.90;;;;;;4978916;28;20134;-80
2021/01/10 09:06:35;;;;;;;77.05;36.97;;;2.50;99.90;;;;;;4982926;28;20051;-79
2021/01/10 09:09:04;;;;;;;68.25;34.75;;;2.60;99.90;;;;;;4994605;28;20047;-82
2021/01/10 09:11:34;;;;;;;70.70;35.90;;;2.50;99.90;;;;;;4996435;28;20103;-82
2021/01/10 09:14:02;;;;;;;70.15;34.60;;;2.60;99.90;;;;;;4996403;28;20053;-82
2021/01/10 09:16:32;;;;;;;66.15;34.65;;;2.60;99.90;;;;;;4990601;28;20073;-81
2021/01/10 09:19:00;;;;;;;68.38;38.25;;;2.70;99.90;;;;;;4986862;28;20065;-82
2021/01/10 09:21:29;;;;;;;63.60;34.03;;;2.70;99.90;;;;;;4980764;28;20115;-83
2021/01/10 09:23:57;;;;;;;67.50;35.45;;;2.80;99.90;;;;;;4979063;28;20081;-81
2021/01/10 09:26:28;;;;;;;67.85;33.22;;;2.80;99.90;;;;;;4980482;28;20073;-82
2021/01/10 09:28:56;;;;;;;68.00;33.78;;;2.80;99.90;;;;;;4976960;28;20423;-81
2021/01/10 09:31:38;;;;;;;67.55;34.05;;;2.80;99.90;;;;;;4979887;28;20133;-80
2021/01/10 09:34:05;;;;;;;63.17;32.87;;;2.90;99.90;;;;;;4979542;28;20078;-83
2021/01/10 09:36:32;;;;;;;58.15;31.33;;;2.90;99.90;;;;;;4978738;28;20055;-81
2021/01/10 09:38:59;;;;;;;56.83;31.60;;;3.00;99.90;;;;;;4977908;28;20046;-80
2021/01/10 09:41:26;;;;;;;57.72;31.52;;;3.00;99.90;;;;;;4978297;28;20115;-80
2021/01/10 09:43:59;;;;;;;63.75;33.20;;;3.00;99.90;;;;;;4981906;28;20092;-85
2021/01/10 09:46:28;;;;;;;61.47;30.42;;;3.00;99.90;;;;;;4977980;28;20046;-84
2021/01/10 09:48:57;;;;;;;61.85;33.15;;;3.00;99.90;;;;;;4977869;28;20047;-81
2021/01/10 09:51:23;;;;;;;59.35;31.70;;;2.90;99.90;;;;;;4977870;28;20455;-81
2021/01/10 09:53:50;;;;;;;55.30;31.35;;;2.80;99.90;;;;;;4983372;28;20050;-81
2021/01/10 09:56:44;;;;;;;62.67;32.75;;;2.80;99.90;;;;;;4978710;28;20106;-82
2021/01/10 09:59:39;;;;;;;63.13;31.90;;;2.90;99.90;;;;;;4980489;28;20051;-83
2021/01/10 10:02:14;;;;;;;57.97;32.58;;;2.90;99.90;;;;;;4975448;28;20109;-82
2021/01/10 10:04:44;;;;;;;62.20;32.78;;;2.90;99.90;;;;;;4975725;28;20086;-83
2021/01/10 10:07:11;;;;;;;64.03;33.75;;;2.90;99.90;;;;;;4976390;28;20487;-83
2021/01/10 10:09:55;;;;;;;62.25;33.00;;;2.90;99.90;;;;;;4976368;28;20567;-83
2021/01/10 10:12:23;;;;;;;57.22;30.98;;;2.90;99.90;;;;;;4976414;28;20078;-84
2021/01/10 10:14:52;;;;;;;62.03;32.72;;;3.00;99.90;;;;;;4976828;28;20047;-82
2021/01/10 10:17:19;;;;;;;58.53;34.22;;;3.00;99.90;;;;;;4978511;28;20193;-83
2021/01/10 10:19:46;;;;;;;66.72;38.22;;;3.00;99.90;;;;;;4977595;28;20116;-83
2021/01/10 10:22:26;;;;;;;65.20;36.65;;;3.10;99.90;;;;;;4977274;28;20094;-83
2021/01/10 10:24:54;;;;;;;68.10;34.05;;;3.10;99.90;;;;;;4977130;28;20094;-84
2021/01/10 10:27:21;;;;;;;68.93;33.85;;;3.20;99.90;;;;;;4977961;28;20055;-83
2021/01/10 10:29:48;;;;;;;62.78;33.85;;;3.20;99.90;;;;;;4978345;28;20478;-84
2021/01/10 10:32:15;;;;;;;61.38;33.05;;;3.20;99.90;;;;;;4977320;28;20134;-82
2021/01/10 10:34:41;;;;;;;74.00;39.17;;;3.20;99.90;;;;;;4977300;28;20082;-84
2021/01/10 10:37:08;;;;;;;72.95;41.53;;;3.20;99.90;;;;;;4977501;28;20093;-82
2021/01/10 10:39:35;;;;;;;69.50;39.55;;;3.30;99.90;;;;;;4976869;28;20194;-82
2021/01/10 10:42:03;;;;;;;64.55;36.08;;;3.40;99.90;;;;;;4978322;28;20058;-81
2021/01/10 10:44:32;;;;;;;59.80;33.90;;;3.40;99.90;;;;;;4978036;28;20512;-82
2021/01/10 10:47:00;;;;;;;62.28;35.45;;;3.40;99.90;;;;;;4979791;28;20058;-85
2021/01/10 10:49:30;;;;;;;65.85;34.53;;;3.40;99.90;;;;;;4981873;28;20101;-82
2021/01/10 10:51:56;;;;;;;63.00;35.67;;;3.60;99.90;;;;;;4986263;23;20229;-79
2021/01/10 10:54:22;;;;;;;74.40;40.95;;;3.50;99.90;;;;;;4935666;29;20572;-82
2021/01/10 10:56:50;;;;;;;70.72;38.28;;;3.50;99.90;;;;;;4939765;29;20055;-82
2021/01/10 10:59:17;;;;;;;64.32;36.13;;;3.60;99.90;;;;;;4942705;29;20059;-82
2021/01/10 11:01:45;;;;;;;70.13;39.25;;;3.60;99.90;;;;;;4940986;29;20155;-81
2021/01/10 11:04:12;;;;;;;66.18;37.13;;;3.70;99.90;;;;;;4942200;29;20064;-81
2021/01/10 11:06:39;;;;;;;71.03;38.25;;;3.70;99.90;;;;;;4941710;29;20476;-82
2021/01/10 11:09:08;;;;;;;66.15;37.63;;;3.70;99.90;;;;;;4945379;29;20118;-80
2021/01/10 11:11:36;;;;;;;66.38;35.75;;;3.70;99.90;;;;;;4941549;29;20056;-79
2021/01/10 11:14:04;;;;;;;65.00;36.03;;;3.80;99.90;;;;;;4942490;29;20079;-81
2021/01/10 11:16:31;;;;;;;71.97;39.47;;;3.80;99.90;;;;;;4942985;29;20054;-81
2021/01/10 11:18:58;;;;;;;75.50;39.42;;;3.90;99.90;;;;;;4943080;29;20083;-81
2021/01/10 11:21:32;;;;;;;80.28;41.97;;;3.90;99.90;;;;;;4942193;29;20102;-81
2021/01/10 11:23:59;;;;;;;74.88;42.92;;;3.90;99.90;;;;;;4943606;29;20079;-81
2021/01/10 11:26:26;;;;;;;63.42;38.40;;;3.90;99.90;;;;;;4945071;29;20154;-80
2021/01/10 11:28:53;;;;;;;68.38;36.50;;;3.90;99.90;;;;;;4944082;29;20135;-82
2021/01/10 11:31:20;;;;;;;58.25;32.85;;;4.00;99.90;;;;;;4945617;29;20488;-81
2021/01/10 11:33:46;;;;;;;63.38;33.55;;;4.10;99.90;;;;;;4944290;29;20563;-81
2021/01/10 11:36:13;;;;;;;63.30;32.08;;;4.10;99.90;;;;;;4945107;29;20074;-82
2021/01/10 11:38:40;;;;;;;59.22;30.90;;;4.20;99.90;;;;;;4943835;29;20142;-81
2021/01/10 11:41:10;;;;;;;58.42;30.98;;;4.20;99.90;;;;;;4941363;29;20107;-80
2021/01/10 11:43:38;;;;;;;59.92;31.40;;;4.20;99.90;;;;;;4939649;29;20055;-83
2021/01/10 11:46:05;;;;;;;57.05;30.13;;;4.20;99.90;;;;;;4942614;29;20465;-85
2021/01/10 11:48:34;;;;;;;56.20;31.20;;;4.20;99.90;;;;;;4937175;29;20078;-84
2021/01/10 11:51:02;;;;;;;51.45;28.67;;;4.30;99.90;;;;;;4932921;29;20051;-82
2021/01/10 11:53:28;;;;;;;50.35;30.45;;;4.20;99.90;;;;;;4931354;29;20080;-82
2021/01/10 11:55:55;;;;;;;53.80;29.85;;;4.30;99.90;;;;;;4937511;29;20083;-82
2021/01/10 11:58:22;;;;;;;54.38;31.25;;;4.30;99.90;;;;;;4937323;29;20581;-82
2021/01/10 12:00:52;;;;;;;62.92;37.33;;;4.40;99.90;;;;;;4941270;29;20075;-81
2021/01/10 12:03:19;;;;;;;54.50;30.38;;;4.50;99.90;;;;;;4935883;29;20115;-81
2021/01/10 12:05:45;;;;;;;53.45;30.52;;;4.50;99.90;;;;;;4936663;29;20075;-81
2021/01/10 12:08:12;;;;;;;58.90;30.45;;;4.60;99.90;;;;;;4937489;29;20078;-84
2021/01/10 12:10:38;;;;;;;51.53;28.75;;;4.60;99.90;;;;;;4936320;29;20078;-83
2021/01/10 12:13:05;;;;;;;64.90;31.30;;;4.60;99.90;;;;;;4941250;29;20063;-81
2021/01/10 12:15:33;;;;;;;57.25;31.05;;;4.60;99.90;;;;;;4936099;29;20064;-83
2021/01/10 12:18:00;;;;;;;59.28;30.92;;;4.70;99.90;;;;;;4938712;29;20087;-83
2021/01/10 12:20:26;;;;;;;57.90;31.58;;;4.70;99.90;;;;;;4937867;29;20075;-84
2021/01/10 12:22:53;;;;;;;53.30;30.08;;;4.70;99.90;;;;;;4937131;29;20102;-81
2021/01/10 12:25:20;;;;;;;54.22;28.95;;;4.90;99.90;;;;;;4936081;29;20488;-82
2021/01/10 12:27:47;;;;;;;51.38;29.83;;;4.90;99.90;;;;;;4938249;29;20054;-82
2021/01/10 12:30:14;;;;;;;55.38;29.38;;;4.90;99.90;;;;;;4937353;29;20167;-84
2021/01/10 12:32:42;;;;;;;57.55;30.45;;;4.80;99.90;;;;;;4940061;29;20675;-82
2021/01/10 12:35:10;;;;;;;55.78;29.08;;;4.90;99.90;;;;;;4941955;29;20075;-83
2021/01/10 12:37:39;;;;;;;53.63;29.58;;;4.90;99.90;;;;;;4941605;29;20079;-81
2021/01/10 12:40:08;;;;;;;52.95;29.00;;;4.90;99.90;;;;;;4946050;29;20130;-83
2021/01/10 12:42:35;;;;;;;53.33;28.38;;;5.00;99.90;;;;;;4940132;29;20048;-82
2021/01/10 12:45:01;;;;;;;54.95;28.52;;;5.00;99.90;;;;;;4946564;29;20079;-82
2021/01/10 12:47:28;;;;;;;57.10;29.75;;;5.00;99.90;;;;;;4955413;29;20051;-82